createdAt,value
2018-04-22T00:00:05.938Z,15.20
2018-04-22T00:01:06.068Z,14.30
2018-04-22T00:02:06.208Z,13.60
2018-04-22T00:03:06.367Z,15.30
2018-04-22T00:04:06.499Z,14.40
2018-04-22T00:05:06.639Z,14.50
2018-04-22T00:06:06.792Z,14.70
2018-04-22T00:07:06.935Z,15.00
2018-04-22T00:08:07.072Z,14.90
2018-04-22T00:09:07.236Z,15.20
2018-04-22T00:10:07.371Z,15.40
2018-04-22T00:11:07.524Z,15.30
2018-04-22T00:12:07.659Z,15.60
2018-04-22T00:13:07.801Z,15.80
2018-04-22T00:14:07.957Z,16.00
2018-04-22T00:15:08.092Z,16.10
2018-04-22T00:16:08.232Z,15.60
2018-04-22T00:17:08.372Z,16.00
2018-04-22T00:18:08.578Z,15.30
2018-04-22T00:19:08.676Z,15.80
2018-04-22T00:20:08.814Z,16.60
2018-04-22T00:21:08.951Z,16.30
2018-04-22T00:22:09.095Z,15.70
2018-04-22T00:23:09.230Z,14.90
2018-04-22T00:24:09.379Z,14.90
2018-04-22T00:25:09.512Z,15.10
2018-04-22T00:26:09.648Z,14.60
2018-04-22T00:27:09.800Z,15.70
2018-04-22T00:28:09.952Z,15.80
2018-04-22T00:29:10.074Z,16.00
2018-04-22T00:30:10.217Z,16.80
2018-04-22T00:31:10.398Z,16.30
2018-04-22T00:32:10.557Z,17.00
2018-04-22T00:33:10.684Z,16.20
2018-04-22T00:34:10.824Z,17.00
2018-04-22T00:35:10.966Z,15.50
2018-04-22T00:36:11.108Z,15.70
2018-04-22T00:37:11.243Z,15.40
2018-04-22T00:38:11.381Z,16.10
2018-04-22T00:39:11.513Z,16.70
2018-04-22T00:40:11.646Z,16.40
2018-04-22T00:41:11.781Z,17.10
2018-04-22T00:42:12.024Z,17.90
2018-04-22T00:43:12.083Z,17.90
2018-04-22T00:44:12.219Z,20.00
2018-04-22T00:45:12.361Z,18.50
2018-04-22T00:46:12.526Z,17.20
2018-04-22T00:47:12.658Z,17.60
2018-04-22T00:48:12.800Z,17.80
2018-04-22T00:49:12.976Z,17.60
2018-04-22T00:50:13.108Z,16.70
2018-04-22T00:51:13.247Z,16.20
2018-04-22T00:52:14.335Z,16.40
2018-04-22T00:53:13.532Z,16.90
2018-04-22T00:54:13.666Z,17.20
2018-04-22T00:55:13.800Z,16.60
2018-04-22T00:56:13.937Z,16.30
2018-04-22T00:57:14.079Z,15.90
2018-04-22T00:58:14.225Z,15.60
2018-04-22T00:59:14.368Z,16.60
2018-04-22T01:00:14.496Z,17.30
2018-04-22T01:01:14.645Z,16.80
2018-04-22T01:02:14.776Z,17.40
2018-04-22T01:03:14.911Z,16.40
2018-04-22T01:04:15.049Z,16.90
2018-04-22T01:05:15.186Z,16.80
2018-04-22T01:06:15.334Z,16.60
2018-04-22T01:07:15.471Z,16.20
2018-04-22T01:08:15.609Z,16.40
2018-04-22T01:09:15.744Z,16.90
2018-04-22T01:10:15.885Z,17.10
2018-04-22T01:11:16.016Z,17.10
2018-04-22T01:12:16.155Z,16.30
2018-04-22T01:13:16.292Z,16.90
2018-04-22T01:14:16.463Z,16.80
2018-04-22T01:15:16.595Z,17.50
2018-04-22T01:16:16.735Z,18.90
2018-04-22T01:17:16.875Z,18.00
2018-04-22T01:18:17.026Z,16.30
2018-04-22T01:19:17.155Z,16.50
2018-04-22T01:20:17.300Z,16.50
2018-04-22T01:21:17.518Z,16.30
2018-04-22T01:22:17.539Z,16.60
2018-04-22T01:23:17.680Z,16.50
2018-04-22T01:24:17.833Z,15.90
2018-04-22T01:25:17.968Z,17.10
2018-04-22T01:26:18.095Z,17.40
2018-04-22T01:27:18.235Z,17.10
2018-04-22T01:28:18.375Z,17.10
2018-04-22T01:29:18.511Z,18.00
2018-04-22T01:30:18.724Z,19.20
2018-04-22T01:31:18.736Z,19.70
2018-04-22T01:32:18.881Z,21.50
2018-04-22T01:33:19.030Z,20.50
2018-04-22T01:34:19.164Z,21.10
2018-04-22T01:35:19.303Z,21.50
2018-04-22T01:36:19.441Z,22.10
2018-04-22T01:37:19.581Z,21.10
2018-04-22T01:38:19.725Z,20.30
2018-04-22T01:39:19.866Z,18.70
2018-04-22T01:40:20.014Z,18.10
2018-04-22T01:41:20.153Z,18.60
2018-04-22T01:42:20.288Z,19.60
2018-04-22T01:43:20.430Z,19.20
2018-04-22T01:44:20.565Z,18.50
2018-04-22T01:45:20.711Z,17.70
2018-04-22T01:46:20.843Z,18.10
2018-04-22T01:47:20.981Z,19.70
2018-04-22T01:48:21.123Z,18.00
2018-04-22T01:49:21.258Z,18.30
2018-04-22T01:50:21.399Z,18.00
2018-04-22T01:51:21.537Z,18.70
2018-04-22T01:52:21.678Z,19.30
2018-04-22T01:53:21.809Z,19.90
2018-04-22T01:54:21.952Z,19.90
2018-04-22T01:55:22.091Z,20.00
2018-04-22T01:56:22.226Z,20.70
2018-04-22T01:57:22.365Z,20.50
2018-04-22T01:58:22.506Z,20.20
2018-04-22T01:59:22.643Z,20.50
2018-04-22T02:00:22.776Z,21.90
2018-04-22T02:01:22.919Z,21.70
2018-04-22T02:02:23.099Z,21.10
2018-04-22T02:03:23.228Z,20.80
2018-04-22T02:04:23.368Z,21.60
2018-04-22T02:05:23.503Z,20.50
2018-04-22T02:06:23.669Z,20.00
2018-04-22T02:07:23.798Z,18.40
2018-04-22T02:08:23.937Z,19.20
2018-04-22T02:09:24.071Z,19.90
2018-04-22T02:10:24.227Z,18.60
2018-04-22T02:11:24.364Z,19.70
2018-04-22T02:12:24.507Z,20.40
2018-04-22T02:13:24.691Z,19.80
2018-04-22T02:14:24.831Z,20.00
2018-04-22T02:15:24.989Z,20.70
2018-04-22T02:16:25.130Z,20.00
2018-04-22T02:17:25.307Z,20.40
2018-04-22T02:18:25.443Z,21.80
2018-04-22T02:19:25.590Z,21.60
2018-04-22T02:20:25.744Z,21.60
2018-04-22T02:21:25.874Z,20.70
2018-04-22T02:22:26.018Z,21.10
2018-04-22T02:23:26.164Z,20.70
2018-04-22T02:24:26.288Z,19.20
2018-04-22T02:25:26.428Z,19.90
2018-04-22T02:26:26.571Z,18.80
2018-04-22T02:27:26.723Z,19.30
2018-04-22T02:28:26.852Z,18.90
2018-04-22T02:29:27.073Z,18.80
2018-04-22T02:30:27.093Z,19.00
2018-04-22T02:31:27.244Z,20.40
2018-04-22T02:32:27.374Z,22.30
2018-04-22T02:33:27.509Z,20.40
2018-04-22T02:34:27.647Z,20.40
2018-04-22T02:35:27.806Z,21.00
2018-04-22T02:36:27.940Z,20.20
2018-04-22T02:37:28.077Z,20.00
2018-04-22T02:38:28.219Z,20.20
2018-04-22T02:39:28.368Z,19.10
2018-04-22T02:40:28.504Z,20.00
2018-04-22T02:41:28.649Z,18.90
2018-04-22T02:42:28.782Z,21.50
2018-04-22T02:43:28.946Z,23.50
2018-04-22T02:44:29.058Z,20.40
2018-04-22T02:45:29.195Z,20.30
2018-04-22T02:46:29.338Z,20.50
2018-04-22T02:47:29.473Z,20.80
2018-04-22T02:48:29.610Z,21.50
2018-04-22T02:49:29.753Z,22.90
2018-04-22T02:50:29.884Z,22.30
2018-04-22T02:51:30.029Z,22.20
2018-04-22T02:52:30.167Z,21.70
2018-04-22T02:53:30.311Z,22.70
2018-04-22T02:54:30.443Z,21.40
2018-04-22T02:55:30.586Z,20.70
2018-04-22T02:56:30.723Z,20.90
2018-04-22T02:57:30.862Z,20.90
2018-04-22T02:58:31.007Z,20.20
2018-04-22T02:59:31.144Z,20.70
2018-04-22T03:00:31.284Z,21.10
2018-04-22T03:01:31.431Z,20.50
2018-04-22T03:02:31.572Z,21.00
2018-04-22T03:03:31.709Z,20.80
2018-04-22T03:04:31.847Z,20.70
2018-04-22T03:05:31.990Z,21.00
2018-04-22T03:06:32.126Z,20.80
2018-04-22T03:07:32.266Z,22.40
2018-04-22T03:08:32.396Z,21.70
2018-04-22T03:09:32.550Z,20.90
2018-04-22T03:10:32.766Z,22.00
2018-04-22T03:11:32.774Z,21.20
2018-04-22T03:12:32.908Z,21.90
2018-04-22T03:13:33.059Z,22.60
2018-04-22T03:14:33.193Z,22.70
2018-04-22T03:15:33.334Z,22.40
2018-04-22T03:16:33.497Z,22.50
2018-04-22T03:17:33.634Z,22.50
2018-04-22T03:18:33.770Z,22.70
2018-04-22T03:19:33.909Z,23.00
2018-04-22T03:20:34.074Z,23.20
2018-04-22T03:21:34.205Z,23.50
2018-04-22T03:22:34.347Z,23.80
2018-04-22T03:23:34.481Z,23.30
2018-04-22T03:24:34.633Z,23.60
2018-04-22T03:25:34.771Z,22.50
2018-04-22T03:26:34.910Z,22.80
2018-04-22T03:27:35.049Z,22.60
2018-04-22T03:28:35.204Z,22.50
2018-04-22T03:29:35.335Z,22.90
2018-04-22T03:30:35.679Z,22.90
2018-04-22T03:31:35.552Z,23.00
2018-04-22T03:32:35.708Z,23.10
2018-04-22T03:33:35.834Z,23.90
2018-04-22T03:34:36.226Z,23.20
2018-04-22T03:35:36.143Z,23.80
2018-04-22T03:36:36.317Z,23.90
2018-04-22T03:37:36.411Z,23.10
2018-04-22T03:38:36.548Z,22.30
2018-04-22T03:39:36.731Z,22.90
2018-04-22T03:40:36.876Z,23.50
2018-04-22T03:41:37.000Z,23.80
2018-04-22T03:42:37.194Z,23.00
2018-04-22T03:43:37.286Z,23.20
2018-04-22T03:44:37.420Z,23.50
2018-04-22T03:45:37.559Z,23.00
2018-04-22T03:46:37.706Z,25.40
2018-04-22T03:47:37.840Z,24.90
2018-04-22T03:48:37.980Z,24.40
2018-04-22T03:49:38.117Z,22.80
2018-04-22T03:50:38.265Z,23.90
2018-04-22T03:51:38.393Z,24.30
2018-04-22T03:52:38.531Z,23.20
2018-04-22T03:53:38.665Z,23.60
2018-04-22T03:54:38.806Z,22.50
2018-04-22T03:55:38.951Z,22.30
2018-04-22T03:56:39.090Z,23.30
2018-04-22T03:57:39.228Z,22.20
2018-04-22T03:58:39.369Z,21.10
2018-04-22T03:59:39.508Z,21.10
2018-04-22T04:00:39.645Z,20.80
2018-04-22T04:01:39.779Z,21.40
2018-04-22T04:02:39.919Z,21.30
2018-04-22T04:03:40.061Z,20.90
2018-04-22T04:04:40.197Z,20.90
2018-04-22T04:05:40.342Z,21.30
2018-04-22T04:06:40.477Z,19.80
2018-04-22T04:07:40.613Z,19.90
2018-04-22T04:08:40.746Z,20.70
2018-04-22T04:09:40.890Z,20.70
2018-04-22T04:10:41.024Z,20.20
2018-04-22T04:11:41.167Z,20.60
2018-04-22T04:12:41.300Z,20.20
2018-04-22T04:13:41.442Z,20.20
2018-04-22T04:14:41.575Z,20.20
2018-04-22T04:15:41.716Z,20.40
2018-04-22T04:16:41.852Z,20.70
2018-04-22T04:17:42.000Z,21.80
2018-04-22T04:18:42.131Z,20.50
2018-04-22T04:19:42.270Z,20.20
2018-04-22T04:20:42.405Z,20.20
2018-04-22T04:21:42.572Z,20.10
2018-04-22T04:22:42.705Z,19.90
2018-04-22T04:23:42.852Z,20.50
2018-04-22T04:24:42.992Z,20.80
2018-04-22T04:25:43.173Z,21.50
2018-04-22T04:26:43.300Z,21.00
2018-04-22T04:27:43.429Z,20.30
2018-04-22T04:28:43.567Z,20.40
2018-04-22T04:29:43.722Z,20.70
2018-04-22T04:30:43.857Z,20.20
2018-04-22T04:31:43.995Z,20.90
2018-04-22T04:32:44.133Z,20.40
2018-04-22T04:33:44.286Z,21.50
2018-04-22T04:34:44.417Z,22.40
2018-04-22T04:35:44.577Z,22.20
2018-04-22T04:36:44.714Z,23.30
2018-04-22T04:37:44.873Z,22.90
2018-04-22T04:38:45.081Z,22.50
2018-04-22T04:39:45.090Z,22.80
2018-04-22T04:40:45.238Z,23.00
2018-04-22T04:41:45.376Z,22.30
2018-04-22T04:42:45.508Z,22.40
2018-04-22T04:43:45.645Z,22.60
2018-04-22T04:44:45.789Z,23.30
2018-04-22T04:45:45.921Z,22.10
2018-04-22T04:46:46.067Z,22.20
2018-04-22T04:47:46.195Z,22.10
2018-04-22T04:48:46.375Z,21.10
2018-04-22T04:49:46.505Z,21.00
2018-04-22T04:50:46.641Z,21.00
2018-04-22T04:51:46.817Z,20.90
2018-04-22T04:52:46.949Z,20.80
2018-04-22T04:53:47.081Z,22.60
2018-04-22T04:54:47.221Z,22.40
2018-04-22T04:55:47.379Z,22.10
2018-04-22T04:56:47.523Z,22.10
2018-04-22T04:57:47.667Z,22.30
2018-04-22T04:58:47.804Z,23.10
2018-04-22T04:59:47.941Z,24.00
2018-04-22T05:00:48.083Z,23.60
2018-04-22T05:01:48.224Z,23.40
2018-04-22T05:02:48.363Z,23.20
2018-04-22T05:03:48.499Z,21.30
2018-04-22T05:04:48.641Z,20.20
2018-04-22T05:05:48.775Z,21.50
2018-04-22T05:06:48.913Z,20.90
2018-04-22T05:07:49.052Z,20.30
2018-04-22T05:08:49.193Z,20.00
2018-04-22T05:09:49.333Z,20.40
2018-04-22T05:10:49.470Z,19.90
2018-04-22T05:11:49.609Z,21.20
2018-04-22T05:12:49.742Z,21.10
2018-04-22T05:13:49.894Z,21.20
2018-04-22T05:14:50.026Z,21.80
2018-04-22T05:15:50.201Z,21.10
2018-04-22T05:16:50.316Z,22.00
2018-04-22T05:17:50.462Z,21.50
2018-04-22T05:18:50.593Z,21.70
2018-04-22T05:19:50.814Z,21.80
2018-04-22T05:20:50.830Z,21.50
2018-04-22T05:21:50.964Z,21.50
2018-04-22T05:22:51.107Z,21.70
2018-04-22T05:23:51.241Z,20.60
2018-04-22T05:24:51.386Z,21.20
2018-04-22T05:25:51.521Z,21.10
2018-04-22T05:26:51.662Z,20.50
2018-04-22T05:27:51.799Z,19.40
2018-04-22T05:28:51.953Z,20.60
2018-04-22T05:29:52.088Z,20.10
2018-04-22T05:30:52.231Z,20.70
2018-04-22T05:31:52.367Z,21.40
2018-04-22T05:32:52.503Z,20.00
2018-04-22T05:33:52.630Z,20.70
2018-04-22T05:34:52.769Z,20.50
2018-04-22T05:35:52.916Z,21.40
2018-04-22T05:36:53.057Z,20.60
2018-04-22T05:37:53.192Z,22.10
2018-04-22T05:38:53.352Z,21.90
2018-04-22T05:39:53.491Z,21.40
2018-04-22T05:40:53.626Z,20.80
2018-04-22T05:41:53.783Z,20.50
2018-04-22T05:42:53.914Z,20.20
2018-04-22T05:43:54.053Z,19.00
2018-04-22T05:44:54.194Z,19.40
2018-04-22T05:45:54.361Z,18.50
2018-04-22T05:46:54.506Z,18.80
2018-04-22T05:47:54.634Z,18.60
2018-04-22T05:48:54.775Z,18.40
2018-04-22T05:49:54.979Z,18.50
2018-04-22T05:50:55.066Z,18.10
2018-04-22T05:51:55.203Z,19.10
2018-04-22T05:52:55.354Z,17.40
2018-04-22T05:53:55.495Z,18.90
2018-04-22T05:54:55.635Z,18.40
2018-04-22T05:55:55.766Z,19.30
2018-04-22T05:56:55.928Z,19.20
2018-04-22T05:57:56.052Z,18.60
2018-04-22T05:58:56.193Z,18.90
2018-04-22T05:59:56.335Z,19.10
2018-04-22T06:00:56.481Z,19.20
2018-04-22T06:01:56.608Z,19.80
2018-04-22T06:02:56.745Z,20.00
2018-04-22T06:03:56.899Z,20.90
2018-04-22T06:04:57.034Z,20.30
2018-04-22T06:05:57.175Z,20.50
2018-04-22T06:06:57.329Z,21.40
2018-04-22T06:07:57.469Z,21.30
2018-04-22T06:08:57.610Z,21.40
2018-04-22T06:09:57.751Z,21.70
2018-04-22T06:10:57.885Z,21.70
2018-04-22T06:11:58.013Z,20.90
2018-04-22T06:12:58.153Z,20.30
2018-04-22T06:13:58.292Z,20.50
2018-04-22T06:14:58.438Z,20.70
2018-04-22T06:15:58.575Z,21.30
2018-04-22T06:16:58.706Z,21.00
2018-04-22T06:17:58.859Z,20.50
2018-04-22T06:18:58.993Z,20.00
2018-04-22T06:19:59.142Z,20.90
2018-04-22T06:20:59.291Z,21.50
2018-04-22T06:21:59.426Z,20.40
2018-04-22T06:22:59.573Z,21.50
2018-04-22T06:23:59.710Z,22.00
2018-04-22T06:24:59.849Z,21.10
2018-04-22T06:25:59.983Z,21.30
2018-04-22T06:27:00.121Z,21.30
2018-04-22T06:28:00.313Z,21.60
2018-04-22T06:29:00.441Z,21.70
2018-04-22T06:30:00.582Z,21.90
2018-04-22T06:31:00.716Z,21.70
2018-04-22T06:32:00.851Z,22.10
2018-04-22T06:33:01.037Z,21.50
2018-04-22T06:34:01.145Z,21.80
2018-04-22T06:35:01.277Z,21.90
2018-04-22T06:36:01.445Z,22.10
2018-04-22T06:37:01.579Z,21.80
2018-04-22T06:38:01.712Z,21.80
2018-04-22T06:39:01.847Z,22.40
2018-04-22T06:40:02.002Z,22.50
2018-04-22T06:41:02.138Z,22.90
2018-04-22T06:42:02.287Z,22.40
2018-04-22T06:43:02.419Z,23.20
2018-04-22T06:44:02.579Z,23.20
2018-04-22T06:45:02.716Z,23.70
2018-04-22T06:46:02.865Z,24.40
2018-04-22T06:47:03.013Z,24.90
2018-04-22T06:48:03.140Z,23.70
2018-04-22T06:49:03.284Z,24.90
2018-04-22T06:50:03.468Z,24.90
2018-04-22T06:51:03.581Z,26.60
2018-04-22T06:52:03.719Z,25.60
2018-04-22T06:53:03.866Z,24.30
2018-04-22T06:54:04.023Z,23.90
2018-04-22T06:55:04.162Z,24.80
2018-04-22T06:56:04.295Z,25.60
2018-04-22T06:57:04.454Z,25.10
2018-04-22T06:58:04.602Z,26.60
2018-04-22T06:59:04.734Z,26.70
2018-04-22T07:00:04.885Z,25.50
2018-04-22T07:01:05.048Z,26.40
2018-04-22T07:02:05.185Z,25.90
2018-04-22T07:03:05.337Z,26.10
2018-04-22T07:04:05.477Z,25.80
2018-04-22T07:05:05.641Z,27.80
2018-04-22T07:06:05.782Z,27.20
2018-04-22T07:07:05.930Z,26.80
2018-04-22T07:08:06.078Z,26.90
2018-04-22T07:09:06.215Z,25.80
2018-04-22T07:10:06.362Z,26.50
2018-04-22T07:11:06.503Z,25.50
2018-04-22T07:12:06.641Z,26.50
2018-04-22T07:13:06.779Z,25.60
2018-04-22T07:14:06.917Z,26.90
2018-04-22T07:15:07.086Z,27.00
2018-04-22T07:16:07.222Z,26.90
2018-04-22T07:17:07.358Z,29.20
2018-04-22T07:18:07.535Z,28.50
2018-04-22T07:19:07.666Z,27.80
2018-04-22T07:20:07.808Z,28.00
2018-04-22T07:21:07.947Z,28.50
2018-04-22T07:22:08.089Z,28.90
2018-04-22T07:23:08.222Z,29.10
2018-04-22T07:24:08.362Z,28.40
2018-04-22T07:25:08.507Z,29.00
2018-04-22T07:26:08.653Z,28.90
2018-04-22T07:27:08.802Z,29.90
2018-04-22T07:28:08.932Z,28.10
2018-04-22T07:29:09.079Z,29.20
2018-04-22T07:30:09.239Z,31.20
2018-04-22T07:31:09.536Z,30.50
2018-04-22T07:32:09.535Z,30.20
2018-04-22T07:33:09.619Z,31.10
2018-04-22T07:34:09.753Z,31.70
2018-04-22T07:35:09.889Z,32.00
2018-04-22T07:36:10.040Z,33.40
2018-04-22T07:37:10.175Z,32.20
2018-04-22T07:38:10.326Z,32.50
2018-04-22T07:39:10.463Z,33.90
2018-04-22T07:40:10.612Z,32.50
2018-04-22T07:41:10.773Z,32.50
2018-04-22T07:42:10.914Z,31.50
2018-04-22T07:43:11.087Z,31.80
2018-04-22T07:44:11.364Z,32.20
2018-04-22T07:45:11.429Z,35.80
2018-04-22T07:46:11.566Z,34.20
2018-04-22T07:47:12.340Z,33.50
2018-04-22T07:48:11.879Z,32.70
2018-04-22T07:49:12.024Z,34.20
2018-04-22T07:50:12.149Z,32.00
2018-04-22T07:51:12.286Z,31.00
2018-04-22T07:52:12.576Z,32.90
2018-04-22T07:53:12.611Z,32.10
2018-04-22T07:54:12.770Z,32.90
2018-04-22T07:55:12.908Z,31.40
2018-04-22T07:56:13.048Z,31.90
2018-04-22T07:57:13.213Z,32.00
2018-04-22T07:58:13.362Z,30.70
2018-04-22T07:59:13.503Z,33.70
2018-04-22T08:00:13.648Z,33.30
2018-04-22T08:01:13.786Z,31.60
2018-04-22T08:02:13.950Z,34.90
2018-04-22T08:03:14.062Z,33.00
2018-04-22T08:04:14.199Z,35.30
2018-04-22T08:05:14.338Z,34.20
2018-04-22T08:06:14.468Z,35.00
2018-04-22T08:07:14.602Z,32.50
2018-04-22T08:08:14.746Z,31.20
2018-04-22T08:09:14.891Z,32.00
2018-04-22T08:10:16.731Z,31.40
2018-04-22T08:11:15.175Z,31.80
2018-04-22T08:12:15.321Z,30.90
2018-04-22T08:13:15.458Z,30.20
2018-04-22T08:14:15.630Z,30.90
2018-04-22T08:15:15.723Z,32.20
2018-04-22T08:16:15.897Z,31.80
2018-04-22T08:17:16.014Z,30.80
2018-04-22T08:18:16.148Z,30.50
2018-04-22T08:19:16.287Z,31.90
2018-04-22T08:20:16.431Z,31.80
2018-04-22T08:21:16.578Z,30.10
2018-04-22T08:22:16.714Z,30.70
2018-04-22T08:23:16.860Z,29.70
2018-04-22T08:24:17.002Z,29.60
2018-04-22T08:25:17.138Z,30.00
2018-04-22T08:26:17.299Z,30.80
2018-04-22T08:27:17.431Z,33.90
2018-04-22T08:28:17.610Z,30.50
2018-04-22T08:29:17.765Z,32.40
2018-04-22T08:30:17.888Z,29.20
2018-04-22T08:31:18.029Z,29.00
2018-04-22T08:32:18.176Z,29.00
2018-04-22T08:33:18.357Z,28.90
2018-04-22T08:34:18.457Z,30.70
2018-04-22T08:35:18.597Z,32.10
2018-04-22T08:36:18.741Z,31.90
2018-04-22T08:37:18.877Z,29.60
2018-04-22T08:38:19.025Z,29.10
2018-04-22T08:39:19.159Z,30.60
2018-04-22T08:40:19.299Z,29.10
2018-04-22T08:41:19.456Z,30.90
2018-04-22T08:42:19.606Z,28.50
2018-04-22T08:43:19.750Z,31.10
2018-04-22T08:44:19.890Z,33.20
2018-04-22T08:45:20.023Z,30.10
2018-04-22T08:46:20.160Z,32.00
2018-04-22T08:47:20.340Z,30.60
2018-04-22T08:48:20.437Z,32.10
2018-04-22T08:49:20.575Z,30.30
2018-04-22T08:50:20.741Z,31.40
2018-04-22T08:51:20.883Z,29.50
2018-04-22T08:52:21.029Z,32.80
2018-04-22T08:53:21.203Z,30.40
2018-04-22T08:54:21.337Z,29.20
2018-04-22T08:55:21.487Z,29.80
2018-04-22T08:56:21.631Z,36.20
2018-04-22T08:57:21.778Z,34.50
2018-04-22T08:58:21.923Z,30.20
2018-04-22T08:59:22.103Z,28.50
2018-04-22T09:00:22.198Z,40.80
2018-04-22T09:01:22.340Z,35.60
2018-04-22T09:02:22.481Z,31.50
2018-04-22T09:03:22.620Z,45.90
2018-04-22T09:04:22.770Z,31.10
2018-04-22T09:05:22.918Z,28.60
2018-04-22T09:06:23.059Z,28.10
2018-04-22T09:07:23.199Z,32.10
2018-04-22T09:08:23.350Z,26.80
2018-04-22T09:09:23.479Z,29.60
2018-04-22T09:10:23.628Z,27.50
2018-04-22T09:11:23.772Z,28.00
2018-04-22T09:12:23.917Z,43.10
2018-04-22T09:13:24.075Z,32.80
2018-04-22T09:14:24.204Z,30.60
2018-04-22T09:15:24.367Z,34.50
2018-04-22T09:16:24.583Z,28.30
2018-04-22T09:17:24.665Z,36.50
2018-04-22T09:18:24.801Z,30.00
2018-04-22T09:19:24.944Z,53.30
2018-04-22T09:20:25.159Z,29.80
2018-04-22T09:21:25.192Z,34.30
2018-04-22T09:22:25.330Z,37.30
2018-04-22T09:23:25.475Z,32.50
2018-04-22T09:24:25.612Z,83.20
2018-04-22T09:25:25.759Z,61.80
2018-04-22T09:26:25.901Z,95.90
2018-04-22T09:27:26.048Z,59.50
2018-04-22T09:28:26.189Z,63.10
2018-04-22T09:29:26.335Z,37.10
2018-04-22T09:30:26.474Z,51.00
2018-04-22T09:31:26.602Z,42.60
2018-04-22T09:32:26.752Z,31.00
2018-04-22T09:33:26.894Z,28.30
2018-04-22T09:34:27.039Z,32.80
2018-04-22T09:35:27.186Z,31.40
2018-04-22T09:36:27.322Z,38.00
2018-04-22T09:37:27.466Z,38.20
2018-04-22T09:38:27.620Z,35.30
2018-04-22T09:39:27.745Z,31.40
2018-04-22T09:40:27.893Z,30.50
2018-04-22T09:41:28.038Z,30.50
2018-04-22T09:42:28.182Z,29.90
2018-04-22T09:43:28.326Z,28.10
2018-04-22T09:44:28.476Z,28.80
2018-04-22T09:45:28.620Z,25.90
2018-04-22T09:46:28.772Z,26.50
2018-04-22T09:47:28.909Z,22.60
2018-04-22T09:48:29.057Z,22.90
2018-04-22T09:49:29.202Z,22.60
2018-04-22T09:50:29.340Z,24.70
2018-04-22T09:51:29.478Z,20.50
2018-04-22T09:52:29.628Z,18.90
2018-04-22T09:53:29.787Z,18.40
2018-04-22T09:54:29.918Z,19.10
2018-04-22T09:55:30.056Z,18.50
2018-04-22T09:56:30.196Z,17.20
2018-04-22T09:57:30.334Z,17.00
2018-04-22T09:58:30.480Z,16.60
2018-04-22T09:59:30.633Z,16.30
2018-04-22T10:00:30.777Z,15.20
2018-04-22T10:01:30.933Z,15.10
2018-04-22T10:02:31.073Z,14.60
2018-04-22T10:03:31.220Z,15.00
2018-04-22T10:04:31.367Z,14.50
2018-04-22T10:05:31.514Z,14.50
2018-04-22T10:06:31.664Z,14.50
2018-04-22T10:07:31.809Z,14.60
2018-04-22T10:08:31.942Z,14.30
2018-04-22T10:09:32.085Z,13.90
2018-04-22T10:10:32.238Z,13.80
2018-04-22T10:11:32.378Z,13.60
2018-04-22T10:12:32.525Z,12.70
2018-04-22T10:13:32.673Z,12.80
2018-04-22T10:14:32.833Z,13.40
2018-04-22T10:15:32.962Z,12.70
2018-04-22T10:16:33.162Z,12.90
2018-04-22T10:17:33.266Z,12.40
2018-04-22T10:18:33.423Z,12.00
2018-04-22T10:19:33.573Z,11.80
2018-04-22T10:20:33.730Z,11.40
2018-04-22T10:21:34.696Z,11.10
2018-04-22T10:22:33.946Z,11.80
2018-04-22T10:23:34.084Z,11.80
2018-04-22T10:24:34.232Z,10.70
2018-04-22T10:25:34.390Z,10.80
2018-04-22T10:26:34.536Z,10.90
2018-04-22T10:27:34.689Z,10.50
2018-04-22T10:28:34.849Z,11.60
2018-04-22T10:29:34.984Z,10.20
2018-04-22T10:30:35.127Z,10.70
2018-04-22T10:31:35.319Z,10.60
2018-04-22T10:32:35.465Z,10.30
2018-04-22T10:33:35.624Z,10.00
2018-04-22T10:34:35.756Z,9.70
2018-04-22T10:35:35.918Z,9.40
2018-04-22T10:36:36.044Z,10.20
2018-04-22T10:37:36.178Z,9.50
2018-04-22T10:38:36.334Z,9.10
2018-04-22T10:39:36.475Z,8.50
2018-04-22T10:40:36.627Z,8.80
2018-04-22T10:41:36.868Z,8.50
2018-04-22T10:42:36.884Z,7.70
2018-04-22T10:43:37.054Z,8.30
2018-04-22T10:44:37.201Z,8.70
2018-04-22T10:45:37.367Z,7.80
2018-04-22T10:46:37.520Z,7.20
2018-04-22T10:47:37.660Z,8.60
2018-04-22T10:48:37.801Z,7.50
2018-04-22T10:49:37.955Z,6.90
2018-04-22T10:50:38.099Z,7.40
2018-04-22T10:51:38.245Z,7.20
2018-04-22T10:52:38.704Z,6.90
2018-04-22T10:53:38.486Z,7.60
2018-04-22T10:54:38.632Z,8.00
2018-04-22T10:55:38.781Z,7.50
2018-04-22T10:56:38.928Z,7.40
2018-04-22T10:57:39.072Z,7.90
2018-04-22T10:58:39.275Z,8.00
2018-04-22T10:59:39.297Z,7.30
2018-04-22T11:00:39.451Z,7.40
2018-04-22T11:01:39.587Z,6.70
2018-04-22T11:02:39.735Z,6.90
2018-04-22T11:03:39.878Z,6.80
2018-04-22T11:04:40.077Z,6.90
2018-04-22T11:05:40.186Z,6.90
2018-04-22T11:06:40.389Z,6.80
2018-04-22T11:07:40.438Z,6.40
2018-04-22T11:08:40.589Z,6.40
2018-04-22T11:09:40.737Z,6.30
2018-04-22T11:10:40.891Z,5.80
2018-04-22T11:11:41.041Z,6.30
2018-04-22T11:12:41.187Z,6.40
2018-04-22T11:13:41.341Z,5.70
2018-04-22T11:14:41.739Z,5.80
2018-04-22T11:15:41.816Z,5.90
2018-04-22T11:16:41.720Z,5.90
2018-04-22T11:17:41.891Z,5.70
2018-04-22T11:18:42.035Z,5.60
2018-04-22T11:19:42.185Z,5.30
2018-04-22T11:20:42.332Z,5.20
2018-04-22T11:21:42.479Z,75.70
2018-04-22T11:22:42.630Z,13.00
2018-04-22T11:23:42.787Z,10.90
2018-04-22T11:24:42.948Z,30.80
2018-04-22T11:25:43.087Z,5.30
2018-04-22T11:26:43.248Z,5.20
2018-04-22T11:27:43.400Z,5.70
2018-04-22T11:28:43.545Z,5.10
2018-04-22T11:29:43.700Z,5.30
2018-04-22T11:30:43.855Z,5.30
2018-04-22T11:31:43.998Z,5.30
2018-04-22T11:32:44.150Z,5.10
2018-04-22T11:33:44.294Z,5.20
2018-04-22T11:34:44.445Z,5.20
2018-04-22T11:35:44.589Z,5.00
2018-04-22T11:36:44.748Z,5.30
2018-04-22T11:37:44.956Z,4.90
2018-04-22T11:38:44.995Z,4.80
2018-04-22T11:39:45.146Z,4.50
2018-04-22T11:40:45.299Z,5.00
2018-04-22T11:41:45.452Z,5.20
2018-04-22T11:42:45.596Z,4.70
2018-04-22T11:43:45.744Z,5.20
2018-04-22T11:44:45.897Z,5.10
2018-04-22T11:45:46.047Z,4.90
2018-04-22T11:46:46.195Z,5.50
2018-04-22T11:47:46.376Z,4.70
2018-04-22T11:48:46.538Z,5.40
2018-04-22T11:49:46.691Z,4.80
2018-04-22T11:50:46.839Z,5.40
2018-04-22T11:51:47.009Z,5.10
2018-04-22T11:52:47.281Z,4.90
2018-04-22T11:53:47.312Z,5.10
2018-04-22T11:54:47.465Z,4.60
2018-04-22T11:55:47.625Z,4.30
2018-04-22T11:56:47.775Z,4.30
2018-04-22T11:57:47.921Z,4.80
2018-04-22T11:58:48.079Z,4.50
2018-04-22T11:59:48.253Z,4.40
2018-04-22T12:00:48.405Z,4.40
2018-04-22T12:01:48.547Z,4.50
2018-04-22T12:02:48.692Z,5.30
2018-04-22T12:03:48.890Z,7.80
2018-04-22T12:04:49.007Z,4.90
2018-04-22T12:05:49.168Z,5.00
2018-04-22T12:06:49.311Z,4.70
2018-04-22T12:07:49.463Z,4.60
2018-04-22T12:08:49.616Z,4.60
2018-04-22T12:09:49.765Z,4.50
2018-04-22T12:10:49.925Z,4.70
2018-04-22T12:11:50.059Z,5.40
2018-04-22T12:12:50.211Z,4.70
2018-04-22T12:13:50.370Z,5.00
2018-04-22T12:14:50.520Z,5.00
2018-04-22T12:15:50.667Z,4.60
2018-04-22T12:16:50.809Z,4.80
2018-04-22T12:17:52.220Z,6.60
2018-04-22T12:18:51.134Z,5.10
2018-04-22T12:19:51.279Z,4.60
2018-04-22T12:20:51.432Z,6.20
2018-04-22T12:21:51.578Z,5.30
2018-04-22T12:22:51.738Z,5.70
2018-04-22T12:23:51.887Z,4.50
2018-04-22T12:24:52.047Z,6.30
2018-04-22T12:25:52.188Z,4.90
2018-04-22T12:26:52.333Z,6.30
2018-04-22T12:27:52.479Z,5.30
2018-04-22T12:28:52.625Z,5.40
2018-04-22T12:29:52.782Z,7.30
2018-04-22T12:30:52.936Z,7.00
2018-04-22T12:31:53.109Z,14.10
2018-04-22T12:32:53.224Z,6.90
2018-04-22T12:33:53.392Z,9.60
2018-04-22T12:34:53.529Z,6.80
2018-04-22T12:35:53.683Z,9.70
2018-04-22T12:36:53.840Z,6.30
2018-04-22T12:37:54.064Z,4.70
2018-04-22T12:38:54.150Z,5.80
2018-04-22T12:39:54.303Z,5.00
2018-04-22T12:40:54.454Z,5.20
2018-04-22T12:41:54.598Z,5.40
2018-04-22T12:42:54.747Z,6.90
2018-04-22T12:43:54.898Z,4.40
2018-04-22T12:44:55.036Z,5.10
2018-04-22T12:45:55.182Z,5.00
2018-04-22T12:46:55.339Z,4.80
2018-04-22T12:47:55.602Z,4.90
2018-04-22T12:48:55.663Z,5.60
2018-04-22T12:49:55.817Z,5.00
2018-04-22T12:50:55.952Z,5.00
2018-04-22T12:51:56.107Z,4.60
2018-04-22T12:52:56.256Z,4.30
2018-04-22T12:53:56.439Z,4.70
2018-04-22T12:54:56.567Z,5.50
2018-04-22T12:55:56.717Z,4.80
2018-04-22T12:56:56.898Z,4.60
2018-04-22T12:57:57.081Z,6.20
2018-04-22T12:58:57.265Z,4.30